.
WxDataArchive / Data Records for 2008-05-18
2008-05-17 May 2008 2008-05-19

Data Records for Sunday, 18 May 2008

Time	Temp	Chill	HIndex	Humid	Dewpt	 Wind 	HiWind	WindDir	Rain 	Barom 
-----	----	-----	------	-----	-----	------	------	-------	-----	----- 
00:00	51.4	51.4	51.4	88	48.0	0	2	270	0.00	29.543 
00:05	51.3	51.3	51.3	88	47.9	0	1	225	0.00	29.532 
00:10	51.3	51.3	51.3	88	47.9	0	2	225	0.00	29.530 
00:15	51.1	51.1	51.1	88	47.7	0	2	68	0.01	29.530 
00:20	51.0	51.0	51.0	89	47.9	0	0	---	0.00	29.516 
00:25	50.8	50.8	50.8	89	47.7	0	3	248	0.00	29.515 
00:30	50.7	50.7	50.7	90	47.9	0	1	248	0.00	29.515 
00:35	50.5	50.5	50.5	90	47.7	0	1	248	0.00	29.501 
00:40	50.5	50.5	50.5	90	47.7	0	1	248	0.00	29.499 
00:45	50.4	50.4	50.4	91	47.9	0	1	248	0.00	29.500 
00:50	50.2	50.2	50.2	91	47.7	0	1	248	0.00	29.495 
00:55	50.2	50.2	50.2	91	47.7	0	1	45	0.00	29.499 
01:00	50.2	50.2	50.2	91	47.7	0	2	45	0.00	29.516 
01:05	50.2	50.2	50.2	92	48.0	0	2	45	0.00	29.518 
01:10	50.1	50.1	50.1	92	47.9	0	3	45	0.00	29.504 
01:15	50.1	50.1	50.1	92	47.9	0	1	45	0.00	29.508 
01:20	50.1	50.1	50.1	92	47.9	0	1	22	0.00	29.519 
01:25	50.1	50.1	50.1	92	47.9	0	1	22	0.00	29.512 
01:30	50.1	50.1	50.1	92	47.9	0	1	22	0.00	29.497 
01:35	50.1	50.1	50.1	92	47.9	0	1	22	0.00	29.502 
01:40	50.1	50.1	50.1	92	47.9	1	3	338	0.00	29.518 
01:45	50.2	50.2	50.2	92	48.0	0	2	338	0.01	29.517 
01:50	50.1	50.1	50.1	92	47.9	1	4	338	0.01	29.507 
01:55	49.8	49.8	49.8	92	47.6	1	4	315	0.01	29.487 
02:00	49.8	49.8	49.8	92	47.6	0	4	315	0.00	29.487 
02:05	49.1	49.1	49.1	92	46.9	1	6	338	0.00	29.486 
02:10	48.3	48.3	48.3	91	45.8	1	3	338	0.00	29.489 
02:15	48.0	48.0	48.0	92	45.8	1	4	338	0.00	29.503 
02:20	47.7	47.7	47.7	92	45.5	1	4	292	0.00	29.515 
02:25	47.6	47.6	47.6	92	45.4	1	3	292	0.02	29.517 
02:30	47.3	47.3	47.3	92	45.1	0	3	270	0.01	29.512 
02:35	47.1	47.1	47.1	92	44.9	0	3	270	0.01	29.501 
02:40	47.1	47.1	47.1	92	44.9	0	0	---	0.01	29.494 
02:45	47.0	47.0	47.0	92	44.8	0	0	---	0.00	29.489 
02:50	47.0	47.0	47.0	93	45.1	0	2	270	0.00	29.471 
02:55	47.0	47.0	47.0	93	45.1	0	0	---	0.00	29.474 
03:00	47.0	47.0	47.0	93	45.1	1	2	270	0.00	29.463 
03:05	47.0	47.0	47.0	93	45.1	1	3	112	0.01	29.456 
03:10	47.0	47.0	47.0	93	45.1	1	3	112	0.00	29.443 
03:15	47.0	47.0	47.0	94	45.4	1	4	112	0.00	29.439 
03:20	46.8	46.8	46.8	94	45.2	1	3	112	0.00	29.433 
03:25	46.8	46.8	46.8	94	45.2	0	2	112	0.00	29.427 
03:30	46.8	46.8	46.8	94	45.2	0	1	112	0.00	29.438 
03:35	46.8	46.8	46.8	94	45.2	1	5	112	0.00	29.436 
03:40	46.8	46.8	46.8	94	45.2	0	1	135	0.00	29.427 
03:45	46.8	46.8	46.8	94	45.2	0	0	---	0.00	29.427 
03:50	46.8	46.8	46.8	94	45.2	0	1	135	0.00	29.434 
03:55	46.8	46.8	46.8	94	45.2	0	1	135	0.00	29.427 
04:00	46.8	46.8	46.8	94	45.2	0	2	135	0.00	29.418 
04:05	46.7	46.7	46.7	94	45.1	0	1	135	0.00	29.416 
04:10	46.7	46.7	46.7	94	45.1	0	1	158	0.00	29.422 
04:15	46.5	46.5	46.5	94	44.9	0	1	158	0.00	29.418 
04:20	46.4	46.4	46.4	94	44.8	0	0	---	0.00	29.425 
04:25	46.4	46.4	46.4	94	44.8	0	1	158	0.00	29.426 
04:30	46.1	46.1	46.1	94	44.5	0	0	---	0.00	29.424 
04:35	46.0	46.0	46.0	94	44.4	0	0	---	0.00	29.424 
04:40	45.8	45.8	45.8	94	44.2	0	0	---	0.00	29.426 
04:45	45.7	45.7	45.7	94	44.1	0	1	158	0.00	29.425 
04:50	45.5	45.5	45.5	94	43.9	0	0	---	0.00	29.423 
04:55	45.4	45.4	45.4	94	43.8	0	0	---	0.00	29.428 
05:00	45.4	45.4	45.4	94	43.8	0	0	---	0.00	29.428 
05:05	45.2	45.2	45.2	94	43.6	0	1	158	0.00	29.427 
05:10	45.1	45.1	45.1	94	43.5	0	0	---	0.00	29.427 
05:15	45.1	45.1	45.1	95	43.8	0	0	---	0.00	29.427 
05:20	45.1	45.1	45.1	95	43.8	0	1	158	0.00	29.427 
05:25	44.9	44.9	44.9	95	43.6	0	1	158	0.00	29.426 
05:30	45.1	45.1	45.1	95	43.8	0	1	158	0.00	29.430 
05:35	45.1	45.1	45.1	95	43.8	0	1	158	0.00	29.431 
05:40	45.1	45.1	45.1	95	43.8	0	1	158	0.00	29.431 
05:45	45.2	45.2	45.2	95	43.9	0	2	180	0.00	29.429 
05:50	45.4	45.4	45.4	95	44.1	0	1	180	0.00	29.429 
05:55	45.5	45.5	45.5	95	44.2	0	1	202	0.00	29.428 
06:00	45.7	45.7	45.7	96	44.6	0	2	202	0.00	29.428 
06:05	46.0	46.0	46.0	96	44.9	1	3	248	0.00	29.432 
06:10	46.2	46.2	46.2	96	45.1	1	3	248	0.00	29.437 
06:15	46.4	46.4	46.4	96	45.3	1	3	248	0.00	29.441 
06:20	46.7	46.7	46.7	96	45.6	1	2	248	0.00	29.442 
06:25	47.0	47.0	47.0	96	45.9	1	3	248	0.00	29.442 
06:30	47.1	47.1	47.1	96	46.0	1	3	248	0.00	29.442 
06:35	47.4	47.4	47.4	95	46.0	1	4	315	0.00	29.443 
06:40	47.7	47.7	47.7	95	46.3	1	3	248	0.00	29.442 
06:45	48.0	48.0	48.0	95	46.6	1	5	248	0.00	29.444 
06:50	48.2	48.2	48.2	94	46.6	1	4	292	0.00	29.442 
06:55	48.5	48.5	48.5	93	46.6	1	3	292	0.00	29.442 
07:00	48.8	48.8	48.8	92	46.6	2	3	315	0.00	29.442 
07:05	49.1	49.1	49.1	91	46.6	2	4	270	0.00	29.444 
07:10	49.4	49.4	49.4	90	46.6	1	3	270	0.00	29.446 
07:15	49.8	49.8	49.8	89	46.7	1	2	248	0.00	29.445 
07:20	49.9	49.9	49.9	87	46.2	2	3	315	0.00	29.445 
07:25	50.2	50.2	50.2	86	46.2	2	4	248	0.00	29.447 
07:30	50.5	50.5	50.5	85	46.2	2	5	270	0.00	29.444 
07:35	50.5	50.5	50.5	83	45.5	2	6	315	0.00	29.442 
07:40	50.8	50.8	50.8	81	45.2	2	4	270	0.00	29.441 
07:45	51.3	51.3	51.3	81	45.7	2	4	292	0.00	29.441 
07:50	51.4	51.4	51.4	79	45.1	1	4	315	0.00	29.443 
07:55	51.4	51.4	51.4	79	45.1	3	5	270	0.00	29.446 
08:00	51.0	51.0	51.0	78	44.4	2	6	315	0.00	29.445 
08:05	51.1	51.1	51.1	80	45.1	2	4	270	0.00	29.450 
08:10	51.3	51.3	51.3	77	44.3	2	9	315	0.00	29.454 
08:15	51.0	51.0	51.0	78	44.4	2	9	315	0.00	29.454 
08:20	51.6	51.6	51.6	76	44.3	2	6	338	0.00	29.455 
08:25	52.3	52.3	52.3	75	44.6	2	5	292	0.00	29.454 
08:30	52.9	52.9	52.9	73	44.5	2	7	270	0.00	29.457 
08:35	53.3	53.3	53.3	71	44.1	2	6	315	0.00	29.458 
08:40	53.2	53.2	53.2	68	42.9	3	10	270	0.00	29.457 
08:45	53.2	53.2	53.2	72	44.4	2	4	315	0.00	29.459 
08:50	53.5	53.5	53.5	69	43.6	2	5	315	0.00	29.460 
08:55	53.8	53.8	53.8	70	44.2	2	5	292	0.00	29.459 
09:00	53.8	53.8	53.8	68	43.5	3	9	270	0.00	29.461 
09:05	53.8	53.8	53.8	69	43.9	3	5	270	0.00	29.466 
09:10	53.5	53.5	53.5	68	43.2	2	6	315	0.00	29.468 
09:15	53.8	53.8	53.8	68	43.5	3	5	315	0.00	29.471 
09:20	54.1	54.1	54.1	65	42.6	3	6	270	0.00	29.472 
09:25	54.4	54.4	54.4	63	42.1	3	8	292	0.00	29.474 
09:30	54.8	54.8	54.8	63	42.4	3	10	270	0.00	29.473 
09:35	55.0	55.0	55.0	61	41.8	3	5	315	0.00	29.474 
09:40	54.7	54.7	54.7	58	40.2	4	8	315	0.00	29.476 
09:45	54.7	54.7	54.7	57	39.8	4	10	270	0.00	29.477 
09:50	55.0	55.0	55.0	59	40.9	3	7	315	0.00	29.478 
09:55	55.3	55.3	55.3	58	40.8	3	10	315	0.00	29.480 
10:00	55.3	55.3	55.3	58	40.8	3	8	315	0.00	29.484 
10:05	54.7	54.7	54.7	58	40.2	3	9	315	0.00	29.491 
10:10	54.1	54.1	54.1	62	41.4	2	6	292	0.00	29.493 
10:15	54.2	54.2	54.2	59	40.2	3	8	338	0.00	29.495 
10:20	54.2	54.2	54.2	63	41.9	2	5	292	0.00	29.496 
10:25	55.3	55.3	55.3	59	41.2	2	6	270	0.00	29.494 
10:30	54.5	54.5	54.5	57	39.6	3	7	270	0.00	29.494 
10:35	53.9	53.9	53.9	59	39.9	2	5	315	0.00	29.496 
10:40	53.9	53.9	53.9	61	40.8	2	5	292	0.00	29.497 
10:45	54.2	54.2	54.2	57	39.3	3	5	270	0.00	29.496 
10:50	55.1	55.1	55.1	58	40.6	3	7	315	0.00	29.494 
10:55	55.9	55.9	55.9	55	40.0	2	4	270	0.00	29.497 
11:00	55.6	55.6	55.6	56	40.2	1	3	315	0.00	29.499 
11:05	55.1	55.1	55.1	58	40.6	3	6	270	0.00	29.503 
11:10	55.6	55.6	55.6	55	39.7	4	8	315	0.00	29.504 
11:15	56.3	56.3	56.3	55	40.3	3	10	315	0.00	29.500 
11:20	56.7	56.7	56.7	52	39.3	4	12	270	0.00	29.507 
11:25	55.6	55.6	55.6	54	39.2	3	7	292	0.00	29.507 
11:30	55.7	55.7	55.7	53	38.8	3	6	292	0.00	29.509 
11:35	55.4	55.4	55.4	54	39.0	3	6	270	0.00	29.511 
11:40	55.6	55.6	55.6	57	40.6	3	9	270	0.00	29.511 
11:45	56.3	56.3	56.3	49	37.4	2	5	315	0.00	29.511 
11:50	55.7	55.7	55.7	50	37.3	2	7	315	0.00	29.511 
11:55	54.8	54.8	54.8	52	37.5	3	9	270	0.00	29.512 
12:00	55.0	55.0	55.0	52	37.7	3	8	315	0.00	29.511 
12:05	56.2	56.2	56.2	54	39.8	3	9	270	0.00	29.511 
12:10	56.7	56.7	56.7	50	38.3	3	11	270	0.00	29.510 
12:15	56.7	56.7	56.7	50	38.3	3	9	315	0.00	29.512 
12:20	55.4	55.4	55.4	52	38.1	4	9	270	0.00	29.512 
12:25	56.2	56.2	56.2	50	37.8	2	6	315	0.00	29.512 
12:30	56.2	56.2	56.2	50	37.8	3	9	292	0.00	29.513 
12:35	56.5	56.5	56.5	54	40.1	3	10	292	0.00	29.514 
12:40	57.2	57.2	57.2	54	40.7	3	7	270	0.00	29.512 
12:45	56.5	56.5	56.5	50	38.1	3	6	315	0.00	29.514 
12:50	55.1	55.1	55.1	53	38.3	3	6	315	0.00	29.518 
12:55	56.2	56.2	56.2	52	38.8	3	11	292	0.00	29.515 
13:00	56.7	56.7	56.7	51	38.8	3	10	338	0.00	29.515 
13:05	56.3	56.3	56.3	52	38.9	4	7	270	0.00	29.516 
13:10	55.4	55.4	55.4	51	37.6	4	9	270	0.00	29.519 
13:15	56.0	56.0	56.0	50	37.6	3	7	292	0.00	29.518 
13:20	55.4	55.4	55.4	51	37.6	4	9	315	0.00	29.518 
13:25	55.6	55.6	55.6	54	39.2	4	14	270	0.00	29.522 
13:30	56.3	56.3	56.3	54	39.9	4	8	270	0.00	29.525 
13:35	56.6	56.6	56.6	52	39.2	4	10	270	0.00	29.523 
13:40	56.9	56.9	56.9	52	39.5	4	11	292	0.00	29.518 
13:45	57.5	57.5	57.5	55	41.5	2	5	248	0.00	29.522 
13:50	57.0	57.0	57.0	50	38.5	4	13	270	0.00	29.525 
13:55	56.7	56.7	56.7	53	39.8	3	5	270	0.00	29.527 
14:00	56.6	56.6	56.6	54	40.1	3	7	292	0.00	29.526 
14:05	55.9	55.9	55.9	50	37.5	4	9	270	0.00	29.530 
14:10	56.3	56.3	56.3	51	38.4	4	7	315	0.00	29.533 
14:15	56.7	56.7	56.7	49	37.8	3	9	315	0.00	29.528 
14:20	56.7	56.7	56.7	50	38.3	3	6	315	0.00	29.530 
14:25	57.6	57.6	57.6	50	39.1	3	7	270	0.00	29.530 
14:30	57.5	57.5	57.5	49	38.5	3	9	270	0.00	29.529 
14:35	57.0	57.0	57.0	49	38.0	3	7	270	0.00	29.530 
14:40	57.0	57.0	57.0	47	37.0	4	10	315	0.00	29.530 
14:45	56.6	56.6	56.6	48	37.1	3	7	270	0.00	29.532 
14:50	56.7	56.7	56.7	50	38.3	3	8	270	0.00	29.532 
14:55	56.3	56.3	56.3	49	37.4	3	9	270	0.00	29.529 
15:00	56.2	56.2	56.2	50	37.8	3	7	270	0.00	29.534 
15:05	56.0	56.0	56.0	45	35.0	3	6	315	0.00	29.541 
15:10	56.3	56.3	56.3	45	35.2	2	6	338	0.00	29.541 
15:15	56.7	56.7	56.7	47	36.7	3	7	270	0.00	29.537 
15:20	56.9	56.9	56.9	46	36.3	3	7	315	0.00	29.540 
15:25	57.0	57.0	57.0	44	35.3	3	7	270	0.00	29.543 
15:30	56.5	56.5	56.5	46	36.0	3	6	315	0.00	29.544 
15:35	55.3	55.3	55.3	43	33.2	3	9	315	0.00	29.547 
15:40	56.0	56.0	56.0	46	35.5	3	7	292	0.00	29.547 
15:45	56.3	56.3	56.3	42	33.5	4	7	315	0.00	29.548 
15:50	55.9	55.9	55.9	41	32.5	3	8	292	0.00	29.548 
15:55	55.9	55.9	55.9	44	34.3	2	7	270	0.00	29.548 
16:00	56.6	56.6	56.6	42	33.8	4	9	270	0.00	29.550 
16:05	56.5	56.5	56.5	42	33.7	4	10	270	0.00	29.548 
16:10	56.9	56.9	56.9	42	34.0	3	10	315	0.00	29.552 
16:15	57.2	57.2	57.2	41	33.7	2	5	338	0.00	29.550 
16:20	56.7	56.7	56.7	41	33.3	2	6	315	0.00	29.555 
16:25	56.6	56.6	56.6	40	32.6	4	13	270	0.00	29.551 
16:30	56.3	56.3	56.3	39	31.7	3	10	315	0.00	29.559 
16:35	56.3	56.3	56.3	39	31.7	3	7	292	0.00	29.560 
16:40	56.0	56.0	56.0	36	29.4	4	9	292	0.00	29.565 
16:45	55.7	55.7	55.7	38	30.5	3	7	292	0.00	29.565 
16:50	55.6	55.6	55.6	37	29.7	3	7	292	0.00	29.566 
16:55	55.7	55.7	55.7	36	29.2	3	10	315	0.00	29.568 
17:00	55.7	55.7	55.7	39	31.1	2	7	315	0.00	29.567 
17:05	56.0	56.0	56.0	39	31.4	3	6	270	0.00	29.566 
17:10	55.9	55.9	55.9	39	31.3	4	7	270	0.00	29.565 
17:15	55.6	55.6	55.6	40	31.7	2	12	270	0.00	29.568 
17:20	55.6	55.6	55.6	38	30.4	3	7	292	0.00	29.571 
17:25	55.1	55.1	55.1	39	30.6	4	9	270	0.00	29.574 
17:30	54.8	54.8	54.8	38	29.7	4	11	292	0.00	29.574 
17:35	55.0	55.0	55.0	38	29.9	2	7	292	0.00	29.573 
17:40	55.0	55.0	55.0	37	29.2	4	10	270	0.00	29.578 
17:45	54.7	54.7	54.7	39	30.2	3	9	270	0.00	29.579 
17:50	54.7	54.7	54.7	40	30.9	3	6	292	0.00	29.578 
17:55	54.7	54.7	54.7	40	30.9	2	6	315	0.00	29.579 
18:00	54.5	54.5	54.5	39	30.1	3	6	248	0.00	29.580 
18:05	54.4	54.4	54.4	40	30.6	3	5	270	0.00	29.578 
18:10	54.2	54.2	54.2	39	29.8	2	5	315	0.00	29.579 
18:15	54.1	54.1	54.1	40	30.3	2	5	292	0.00	29.579 
18:20	53.9	53.9	53.9	38	28.9	3	5	292	0.00	29.579 
18:25	53.6	53.6	53.6	38	28.6	3	7	315	0.00	29.579 
18:30	53.8	53.8	53.8	39	29.4	1	4	315	0.00	29.581 
18:35	53.6	53.6	53.6	38	28.6	2	4	270	0.00	29.582 
18:40	53.5	53.5	53.5	40	29.8	1	6	270	0.00	29.585 
18:45	53.2	53.2	53.2	36	26.9	2	5	292	0.00	29.590 
18:50	52.9	52.9	52.9	38	28.0	1	5	315	0.00	29.592 
18:55	52.6	52.6	52.6	36	26.4	1	3	315	0.00	29.593 
19:00	52.6	52.6	52.6	39	28.4	1	6	315	0.00	29.595 
19:05	52.3	52.3	52.3	37	26.8	2	6	315	0.00	29.594 
19:10	51.9	51.9	51.9	37	26.5	1	3	292	0.00	29.597 
19:15	51.4	51.4	51.4	38	26.7	1	3	292	0.00	29.599 
19:20	51.3	51.3	51.3	37	25.9	1	4	315	0.00	29.602 
19:25	51.0	51.0	51.0	39	26.9	1	3	292	0.00	29.602 
19:30	50.8	50.8	50.8	40	27.4	0	2	315	0.00	29.604 
19:35	50.5	50.5	50.5	40	27.1	1	6	315	0.00	29.607 
19:40	50.5	50.5	50.5	40	27.1	0	2	315	0.00	29.610 
19:45	50.4	50.4	50.4	42	28.2	0	2	270	0.00	29.613 
19:50	50.2	50.2	50.2	42	28.0	0	2	270	0.00	29.613 
19:55	50.1	50.1	50.1	43	28.5	0	2	248	0.00	29.613 
20:00	49.8	49.8	49.8	43	28.2	1	3	248	0.00	29.613 
20:05	49.6	49.6	49.6	44	28.6	0	1	270	0.00	29.611 
20:10	49.4	49.4	49.4	46	29.5	0	1	270	0.00	29.611 
20:15	49.2	49.2	49.2	46	29.3	1	3	270	0.00	29.615 
20:20	49.2	49.2	49.2	47	29.8	1	3	270	0.00	29.616 
20:25	49.1	49.1	49.1	47	29.7	0	2	270	0.00	29.618 
20:30	48.9	48.9	48.9	48	30.1	0	2	292	0.00	29.616 
20:35	48.8	48.8	48.8	48	30.0	0	2	292	0.00	29.618 
20:40	48.5	48.5	48.5	49	30.2	0	1	292	0.00	29.620 
20:45	48.3	48.3	48.3	50	30.5	0	2	292	0.00	29.622 
20:50	48.2	48.2	48.2	50	30.4	0	1	292	0.00	29.623 
20:55	48.0	48.0	48.0	50	30.3	0	1	292	0.00	29.625 
21:00	47.7	47.7	47.7	51	30.5	0	1	292	0.00	29.625 
21:05	47.6	47.6	47.6	52	30.9	0	1	292	0.00	29.625 
21:10	47.4	47.4	47.4	52	30.7	0	1	292	0.00	29.626 
21:15	47.3	47.3	47.3	53	31.0	0	1	292	0.00	29.627 
21:20	47.0	47.0	47.0	54	31.2	0	1	292	0.00	29.628 
21:25	46.8	46.8	46.8	54	31.0	0	0	---	0.00	29.632 
21:30	46.5	46.5	46.5	55	31.2	0	1	292	0.00	29.633 
21:35	46.4	46.4	46.4	55	31.1	0	0	---	0.00	29.638 
21:40	46.2	46.2	46.2	56	31.4	0	1	292	0.00	29.638 
21:45	46.0	46.0	46.0	58	32.1	0	0	---	0.00	29.639 
21:50	45.7	45.7	45.7	58	31.8	0	0	---	0.00	29.640 
21:55	45.5	45.5	45.5	58	31.6	0	0	---	0.00	29.641 
22:00	45.2	45.2	45.2	59	31.7	0	0	---	0.00	29.641 
22:05	44.9	44.9	44.9	60	31.9	0	0	---	0.00	29.642 
22:10	44.5	44.5	44.5	61	31.9	0	0	---	0.00	29.642 
22:15	44.2	44.2	44.2	62	32.0	0	0	---	0.00	29.642 
22:20	43.6	43.6	43.6	64	32.2	0	0	---	0.00	29.642 
22:25	43.2	43.2	43.2	65	32.2	0	0	---	0.00	29.642 
22:30	42.9	42.9	42.9	66	32.3	0	0	---	0.00	29.638 
22:35	42.6	42.6	42.6	66	32.0	0	0	---	0.00	29.638 
22:40	42.3	42.3	42.3	67	32.1	0	0	---	0.00	29.636 
22:45	42.2	42.2	42.2	68	32.4	0	0	---	0.00	29.634 
22:50	42.1	42.1	42.1	69	32.7	0	0	---	0.00	29.634 
22:55	41.9	41.9	41.9	69	32.5	0	0	---	0.00	29.632 
23:00	41.9	41.9	41.9	69	32.5	0	0	---	0.00	29.631 
23:05	41.8	41.8	41.8	69	32.4	0	0	---	0.00	29.632 
23:10	41.6	41.6	41.6	69	32.2	0	0	---	0.00	29.632 
23:15	41.5	41.5	41.5	71	32.8	0	0	---	0.00	29.633 
23:20	41.3	41.3	41.3	72	33.0	0	0	---	0.00	29.632 
23:25	41.2	41.2	41.2	71	32.5	0	0	---	0.00	29.631 
23:30	41.3	41.3	41.3	71	32.6	0	0	---	0.00	29.631 
23:35	41.3	41.3	41.3	72	33.0	0	0	---	0.00	29.631 
23:40	41.5	41.5	41.5	73	33.5	0	0	---	0.00	29.630 
23:45	41.6	41.6	41.6	73	33.6	0	1	292	0.00	29.629 
23:50	41.9	41.9	41.9	73	33.9	0	0	---	0.00	29.629 
23:55	42.3	42.3	42.3	72	33.9	0	1	292	0.00	29.628 

CoCoRaHS
IN-AL-39
A2 Web Hosting
Creative Commons License
GoDaddy
Look for:

loaded 2017-12-12 07:31:55 • last modified 2010-11-18 10:43:29
Privacy PolicyDisclaimer
• wx.awcolley.com is powered by PmWiki v.2002016 •
• all content (unless otherwise noted) © 2017 A W Colley